Terminal Aerodrome Forecast
Issued by NWS

Home | Current Version | Previous Version | Text Only | Print | Product List | Glossary On
Versions: 1 2 3 4 5 6 7 8 9 10 11 12 13 14 15 16 17 18 19 20 21 22 23 24
000
FTUS43 KLSX 231100
TAFUIN
TAF
KUIN 231121Z 2312/2412 16012KT 5SM -SHRA SCT009 OVC015
     FM231600 14012KT 3SM -RA OVC007
     FM240400 29012G22KT 5SM -RA SCT007 OVC012
     FM240800 30015G25KT 4SM -RASN OVC007=

USA.gov is the U.S. government's official web portal to all federal, state and local government web resources and services.